Time;durP1;ratioP1;P1;durP2;ratioP2;P2;SDS_P1;SDS_P2;PMS_P1;PMS_P2;Temp;Humidity;BMP_temperature;BMP_pressure;BME280_temperature;BME280_humidity;BME280_pressure;Samples;Min_cycle;Max_cycle;Signal;HPM_P1;HPM_P2
2023/07/30 00:01:53;;;;;;;20.30;7.47;;;;;;;;;;5079721;28;20506;-79
2023/07/30 00:04:19;;;;;;;24.77;9.30;;;;;;;;;;5066984;28;20076;-80
2023/07/30 00:06:45;;;;;;;21.20;8.02;;;;;;;;;;5060599;28;20131;-80
2023/07/30 00:09:11;;;;;;;22.00;7.65;;;;;;;;;;5062702;28;20041;-80
2023/07/30 00:11:37;;;;;;;18.35;8.07;;;;;;;;;;5080903;28;20071;-80
2023/07/30 00:14:03;;;;;;;31.58;8.10;;;;;;;;;;5080994;28;20071;-80
2023/07/30 00:16:29;;;;;;;19.15;8.55;;;;;;;;;;5080969;28;20051;-80
2023/07/30 00:18:56;;;;;;;22.33;8.52;;;;;;;;;;5064320;28;20188;-79
2023/07/30 00:21:22;;;;;;;24.55;8.20;;;;;;;;;;5068851;28;20059;-79
2023/07/30 00:23:48;;;;;;;21.45;8.57;;;;;;;;;;5078470;28;20044;-79
2023/07/30 00:26:15;;;;;;;18.95;8.18;;;;;;;;;;5080533;28;20075;-80
2023/07/30 00:28:41;;;;;;;23.98;8.77;;;;;;;;;;5075787;28;20534;-79
2023/07/30 00:31:07;;;;;;;24.17;8.18;;;;;;;;;;5060770;28;20122;-79
2023/07/30 00:33:33;;;;;;;25.10;8.77;;;;;;;;;;5059571;28;20459;-79
2023/07/30 00:35:59;;;;;;;23.70;8.65;;;;;;;;;;5060878;28;20106;-79
2023/07/30 00:38:25;;;;;;;37.00;9.15;;;;;;;;;;5059961;28;20056;-79
2023/07/30 00:40:51;;;;;;;23.83;9.13;;;;;;;;;;5059479;28;20040;-79
2023/07/30 00:43:17;;;;;;;25.20;8.95;;;;;;;;;;5060182;28;20049;-79
2023/07/30 00:45:45;;;;;;;24.02;8.77;;;;;;;;;;5060594;28;20041;-79
2023/07/30 00:48:11;;;;;;;22.95;8.65;;;;;;;;;;5061217;28;20365;-79
2023/07/30 00:50:38;;;;;;;26.35;9.80;;;;;;;;;;5079064;28;20048;-79
2023/07/30 00:53:04;;;;;;;29.65;9.95;;;;;;;;;;5065076;28;20044;-79
2023/07/30 00:55:31;;;;;;;29.02;9.32;;;;;;;;;;5071899;28;20041;-79
2023/07/30 00:57:57;;;;;;;29.30;9.50;;;;;;;;;;5070543;28;20104;-79
2023/07/30 01:00:24;;;;;;;26.27;9.30;;;;;;;;;;5070009;28;20119;-79
2023/07/30 01:02:52;;;;;;;31.05;9.00;;;;;;;;;;5074668;28;20075;-79
2023/07/30 01:05:18;;;;;;;28.98;9.40;;;;;;;;;;5077617;28;20049;-79
2023/07/30 01:07:44;;;;;;;24.52;8.88;;;;;;;;;;5070697;28;20080;-79
2023/07/30 01:10:10;;;;;;;24.85;9.13;;;;;;;;;;5058717;28;20044;-79
2023/07/30 01:12:37;;;;;;;27.13;9.20;;;;;;;;;;5067289;28;20093;-79
2023/07/30 01:15:04;;;;;;;26.48;8.88;;;;;;;;;;5069072;28;20045;-79
2023/07/30 01:17:30;;;;;;;27.75;9.32;;;;;;;;;;5072777;28;20041;-79
2023/07/30 01:19:56;;;;;;;36.42;9.80;;;;;;;;;;5077067;28;20044;-79
2023/07/30 01:22:22;;;;;;;23.45;8.02;;;;;;;;;;5067450;28;20109;-79
2023/07/30 01:24:49;;;;;;;22.65;8.38;;;;;;;;;;5059559;28;20037;-79
2023/07/30 01:27:18;;;;;;;28.50;8.38;;;;;;;;;;5059200;28;20056;-79
2023/07/30 01:29:54;;;;;;;31.27;8.73;;;;;;;;;;5067214;28;20487;-79
2023/07/30 01:32:20;;;;;;;;;;;;;;;;;;5078943;28;20452;-80
2023/07/30 01:34:47;;;;;;;27.67;10.02;;;;;;;;;;5073652;28;19920;-79
2023/07/30 01:37:13;;;;;;;22.77;8.52;;;;;;;;;;5073014;28;20057;-79
2023/07/30 01:39:41;;;;;;;24.33;9.18;;;;;;;;;;5064759;28;20047;-79
2023/07/30 01:42:07;;;;;;;28.98;8.02;;;;;;;;;;5061271;28;20057;-80
2023/07/30 01:44:33;;;;;;;26.38;8.30;;;;;;;;;;5060331;28;20045;-79
2023/07/30 01:46:59;;;;;;;34.17;9.05;;;;;;;;;;5079840;28;20047;-79
2023/07/30 01:49:25;;;;;;;27.02;9.75;;;;;;;;;;5076995;28;20063;-79
2023/07/30 01:51:51;;;;;;;31.60;8.18;;;;;;;;;;5066411;28;20045;-79
2023/07/30 01:54:18;;;;;;;28.48;8.52;;;;;;;;;;5076181;28;20167;-79
2023/07/30 01:56:44;;;;;;;28.52;9.07;;;;;;;;;;5059552;28;20098;-79
2023/07/30 01:59:10;;;;;;;31.05;8.15;;;;;;;;;;5059901;28;20045;-79
2023/07/30 02:01:36;;;;;;;24.67;8.02;;;;;;;;;;5079220;28;20044;-79
2023/07/30 02:04:02;;;;;;;27.50;7.50;;;;;;;;;;5079792;28;20376;-79
2023/07/30 02:06:28;;;;;;;29.50;9.25;;;;;;;;;;5078697;28;20040;-79
2023/07/30 02:08:54;;;;;;;27.55;8.23;;;;;;;;;;5079002;28;20132;-79
2023/07/30 02:11:20;;;;;;;28.48;8.50;;;;;;;;;;5072211;28;20047;-79
2023/07/30 02:13:46;;;;;;;37.20;8.48;;;;;;;;;;5080213;28;20040;-80
2023/07/30 02:16:13;;;;;;;26.42;7.47;;;;;;;;;;5079424;28;20048;-80
2023/07/30 02:18:39;;;;;;;25.38;7.32;;;;;;;;;;5078947;28;20127;-80
2023/07/30 02:21:05;;;;;;;19.30;6.50;;;;;;;;;;5064505;28;20044;-80
2023/07/30 02:23:31;;;;;;;19.98;7.60;;;;;;;;;;5075542;28;20438;-79
2023/07/30 02:25:57;;;;;;;23.15;7.13;;;;;;;;;;5075326;28;20349;-79
2023/07/30 02:28:23;;;;;;;23.25;7.80;;;;;;;;;;5059600;28;20135;-80
2023/07/30 02:30:49;;;;;;;26.80;7.65;;;;;;;;;;5059143;28;20052;-80
2023/07/30 02:33:15;;;;;;;21.50;6.97;;;;;;;;;;5059283;28;20045;-80
2023/07/30 02:35:43;;;;;;;27.52;7.38;;;;;;;;;;5058882;28;20091;-80
2023/07/30 02:38:09;;;;;;;23.92;7.72;;;;;;;;;;5071578;28;20045;-80
2023/07/30 02:40:35;;;;;;;24.48;7.90;;;;;;;;;;5076006;28;20342;-79
2023/07/30 02:43:01;;;;;;;26.08;7.90;;;;;;;;;;5065335;28;20071;-79
2023/07/30 02:45:27;;;;;;;28.65;7.65;;;;;;;;;;5059035;28;20045;-79
2023/07/30 02:47:53;;;;;;;28.42;8.10;;;;;;;;;;5075161;28;20048;-79
2023/07/30 02:50:19;;;;;;;20.15;6.78;;;;;;;;;;5059444;28;20049;-79
2023/07/30 02:52:46;;;;;;;23.17;7.03;;;;;;;;;;5072542;28;20041;-79
2023/07/30 02:55:12;;;;;;;22.13;7.85;;;;;;;;;;5072125;28;20429;-79
2023/07/30 02:57:38;;;;;;;27.02;6.93;;;;;;;;;;5067441;28;20055;-80
2023/07/30 03:00:04;;;;;;;23.10;6.78;;;;;;;;;;5058542;28;20503;-79
2023/07/30 03:02:30;;;;;;;24.40;7.45;;;;;;;;;;5058690;28;20052;-79
2023/07/30 03:04:56;;;;;;;25.27;7.45;;;;;;;;;;5065407;28;20045;-79
2023/07/30 03:07:23;;;;;;;29.27;7.88;;;;;;;;;;5058610;28;20052;-79
2023/07/30 03:09:49;;;;;;;27.25;7.28;;;;;;;;;;5075459;28;20079;-79
2023/07/30 03:12:15;;;;;;;19.75;6.90;;;;;;;;;;5068923;28;20059;-80
2023/07/30 03:14:41;;;;;;;25.00;8.07;;;;;;;;;;5060519;28;20059;-79
2023/07/30 03:17:07;;;;;;;20.08;7.85;;;;;;;;;;5061830;28;20053;-79
2023/07/30 03:19:33;;;;;;;22.33;6.65;;;;;;;;;;5078416;28;20495;-80
2023/07/30 03:21:59;;;;;;;19.30;7.85;;;;;;;;;;5062850;28;20080;-79
2023/07/30 03:24:25;;;;;;;21.88;7.38;;;;;;;;;;5061782;28;20421;-79
2023/07/30 03:26:51;;;;;;;21.52;7.18;;;;;;;;;;5063850;28;20044;-79
2023/07/30 03:29:17;;;;;;;19.27;6.68;;;;;;;;;;5061766;28;20041;-80
2023/07/30 03:31:43;;;;;;;23.08;7.00;;;;;;;;;;5061951;28;20096;-79
2023/07/30 03:34:09;;;;;;;21.50;7.28;;;;;;;;;;5076888;28;20071;-79
2023/07/30 03:36:35;;;;;;;23.67;7.25;;;;;;;;;;5064045;28;20446;-79
2023/07/30 03:39:02;;;;;;;20.10;6.05;;;;;;;;;;5062365;28;20057;-79
2023/07/30 03:41:28;;;;;;;18.23;6.35;;;;;;;;;;5078317;28;20100;-80
2023/07/30 03:43:54;;;;;;;16.65;5.65;;;;;;;;;;5071303;28;20041;-80
2023/07/30 03:46:20;;;;;;;20.55;6.30;;;;;;;;;;5076202;28;20040;-79
2023/07/30 03:48:46;;;;;;;18.27;5.40;;;;;;;;;;5081308;28;20053;-79
2023/07/30 03:51:12;;;;;;;21.52;6.28;;;;;;;;;;5076419;28;20087;-79
2023/07/30 03:53:38;;;;;;;18.80;5.10;;;;;;;;;;5070462;28;20128;-79
2023/07/30 03:56:05;;;;;;;21.88;6.10;;;;;;;;;;5078021;28;21061;-79
2023/07/30 03:58:31;;;;;;;20.27;5.25;;;;;;;;;;5079708;28;20044;-79
2023/07/30 04:00:57;;;;;;;17.75;5.10;;;;;;;;;;5073704;28;20159;-79
2023/07/30 04:03:23;;;;;;;19.20;5.82;;;;;;;;;;5081773;28;20131;-79
2023/07/30 04:05:49;;;;;;;13.52;5.35;;;;;;;;;;5081205;28;20044;-79
2023/07/30 04:08:16;;;;;;;17.23;5.47;;;;;;;;;;5064007;28;20114;-79
2023/07/30 04:10:42;;;;;;;18.20;5.03;;;;;;;;;;5074413;28;20037;-79
2023/07/30 04:13:08;;;;;;;14.60;5.10;;;;;;;;;;5080810;28;20076;-79
2023/07/30 04:15:34;;;;;;;16.05;5.22;;;;;;;;;;5081566;28;20055;-79
2023/07/30 04:18:00;;;;;;;13.00;4.63;;;;;;;;;;5079308;28;20482;-79
2023/07/30 04:20:26;;;;;;;12.00;4.28;;;;;;;;;;5078917;28;20044;-80
2023/07/30 04:22:52;;;;;;;15.20;4.97;;;;;;;;;;5063920;28;20053;-79
2023/07/30 04:25:18;;;;;;;12.50;4.38;;;;;;;;;;5060806;28;20037;-80
2023/07/30 04:27:44;;;;;;;12.55;4.53;;;;;;;;;;5072849;28;20127;-79
2023/07/30 04:30:11;;;;;;;11.35;3.95;;;;;;;;;;5079430;28;20128;-79
2023/07/30 04:32:37;;;;;;;9.98;3.70;;;;;;;;;;5080097;28;20118;-79
2023/07/30 04:35:03;;;;;;;11.00;3.65;;;;;;;;;;5079993;28;20052;-79
2023/07/30 04:37:29;;;;;;;12.25;3.40;;;;;;;;;;5079917;28;20135;-80
2023/07/30 04:39:55;;;;;;;9.65;3.55;;;;;;;;;;5073893;28;20048;-79
2023/07/30 04:42:22;;;;;;;6.80;2.65;;;;;;;;;;5081412;28;20040;-80
2023/07/30 04:44:48;;;;;;;7.47;3.13;;;;;;;;;;5059807;28;20052;-80
2023/07/30 04:47:14;;;;;;;6.07;2.90;;;;;;;;;;5073844;28;20507;-79
2023/07/30 04:49:40;;;;;;;9.10;3.42;;;;;;;;;;5079752;28;20080;-79
2023/07/30 04:52:07;;;;;;;9.57;2.80;;;;;;;;;;5074831;28;20072;-81
2023/07/30 04:54:35;;;;;;;9.70;3.10;;;;;;;;;;5059222;28;20128;-79
2023/07/30 04:57:01;;;;;;;10.52;2.80;;;;;;;;;;5060282;28;20175;-79
2023/07/30 04:59:27;;;;;;;8.60;3.10;;;;;;;;;;5062885;28;20040;-79
2023/07/30 05:01:53;;;;;;;9.57;2.80;;;;;;;;;;5065271;28;20048;-79
2023/07/30 05:04:19;;;;;;;12.60;3.55;;;;;;;;;;5059546;28;20062;-79
2023/07/30 05:06:45;;;;;;;8.30;2.90;;;;;;;;;;5059796;28;20114;-79
2023/07/30 05:09:11;;;;;;;9.15;3.00;;;;;;;;;;5068849;28;20047;-79
2023/07/30 05:11:37;;;;;;;18.00;4.22;;;;;;;;;;5077454;28;20467;-79
2023/07/30 05:14:03;;;;;;;9.25;3.45;;;;;;;;;;5073304;28;20094;-79
2023/07/30 05:16:30;;;;;;;10.93;3.22;;;;;;;;;;5064788;28;20041;-79
2023/07/30 05:18:56;;;;;;;10.52;3.72;;;;;;;;;;5068956;28;20445;-79
2023/07/30 05:21:22;;;;;;;8.32;3.00;;;;;;;;;;5064724;28;20508;-79
2023/07/30 05:23:48;;;;;;;11.23;3.40;;;;;;;;;;5065276;28;20080;-79
2023/07/30 05:26:14;;;;;;;12.82;3.92;;;;;;;;;;5064483;28;20110;-79
2023/07/30 05:28:40;;;;;;;7.75;3.40;;;;;;;;;;5068702;28;20574;-79
2023/07/30 05:31:06;;;;;;;9.48;3.55;;;;;;;;;;5079710;28;20040;-79
2023/07/30 05:33:32;;;;;;;16.52;3.97;;;;;;;;;;5065333;28;20053;-79
2023/07/30 05:35:58;;;;;;;9.00;3.42;;;;;;;;;;5062489;28;20049;-79
2023/07/30 05:38:24;;;;;;;10.25;3.95;;;;;;;;;;5060675;28;20057;-79
2023/07/30 05:40:50;;;;;;;10.88;3.85;;;;;;;;;;5059699;28;20048;-79
2023/07/30 05:43:16;;;;;;;13.15;3.80;;;;;;;;;;5065119;28;20040;-80
2023/07/30 05:45:43;;;;;;;9.60;3.45;;;;;;;;;;5080451;28;20040;-82
2023/07/30 05:48:10;;;;;;;8.40;3.65;;;;;;;;;;5060586;28;20049;-79
2023/07/30 05:50:36;;;;;;;8.27;2.83;;;;;;;;;;5079932;28;20485;-80
2023/07/30 05:53:02;;;;;;;12.27;3.38;;;;;;;;;;5079198;28;20051;-80
2023/07/30 05:55:28;;;;;;;12.73;3.30;;;;;;;;;;5080104;28;20045;-79
2023/07/30 05:57:55;;;;;;;9.02;3.08;;;;;;;;;;5079656;28;20048;-79
2023/07/30 06:00:21;;;;;;;10.02;3.55;;;;;;;;;;5080405;28;20056;-79
2023/07/30 06:02:47;;;;;;;10.35;3.28;;;;;;;;;;5079351;28;20059;-79
2023/07/30 06:05:13;;;;;;;9.10;3.20;;;;;;;;;;5078963;28;20051;-80
2023/07/30 06:07:39;;;;;;;13.20;3.97;;;;;;;;;;5079158;28;20032;-79
2023/07/30 06:10:05;;;;;;;10.45;3.90;;;;;;;;;;5079053;28;20548;-79
2023/07/30 06:12:31;;;;;;;6.30;3.13;;;;;;;;;;5078883;28;20044;-79
2023/07/30 06:14:57;;;;;;;12.63;2.97;;;;;;;;;;5078605;28;20044;-79
2023/07/30 06:17:24;;;;;;;9.68;2.92;;;;;;;;;;5076767;28;20102;-79
2023/07/30 06:19:50;;;;;;;11.32;3.50;;;;;;;;;;5079156;28;20467;-79
2023/07/30 06:22:16;;;;;;;9.38;3.30;;;;;;;;;;5077472;28;20056;-79
2023/07/30 06:24:42;;;;;;;9.70;3.53;;;;;;;;;;5078165;28;20044;-79
2023/07/30 06:27:09;;;;;;;8.73;3.22;;;;;;;;;;5068916;28;20467;-79
2023/07/30 06:29:36;;;;;;;9.38;3.10;;;;;;;;;;5076276;28;20106;-79
2023/07/30 06:32:02;;;;;;;10.82;3.10;;;;;;;;;;5064622;28;20037;-79
2023/07/30 06:34:28;;;;;;;9.50;3.47;;;;;;;;;;5072079;28;20050;-79
2023/07/30 06:36:55;;;;;;;11.10;3.17;;;;;;;;;;5063846;28;20107;-79
2023/07/30 06:39:21;;;;;;;9.48;3.35;;;;;;;;;;5064991;28;20107;-79
2023/07/30 06:41:47;;;;;;;15.80;3.42;;;;;;;;;;5061788;28;20075;-79
2023/07/30 06:44:14;;;;;;;9.65;3.17;;;;;;;;;;5069389;28;20045;-79
2023/07/30 06:46:40;;;;;;;8.20;2.70;;;;;;;;;;5064363;28;20429;-79
2023/07/30 06:49:06;;;;;;;9.23;3.00;;;;;;;;;;5074245;28;20494;-79
2023/07/30 06:51:32;;;;;;;13.10;3.83;;;;;;;;;;5062817;28;20352;-80
2023/07/30 06:53:58;;;;;;;10.57;3.72;;;;;;;;;;5076714;28;20083;-80
2023/07/30 06:56:24;;;;;;;14.43;3.78;;;;;;;;;;5078313;28;20052;-80
2023/07/30 06:58:50;;;;;;;11.18;3.42;;;;;;;;;;5071241;28;20099;-81
2023/07/30 07:01:16;;;;;;;9.18;3.00;;;;;;;;;;5067311;28;20049;-80
2023/07/30 07:03:42;;;;;;;10.73;3.30;;;;;;;;;;5077048;28;20056;-78
2023/07/30 07:06:08;;;;;;;10.98;4.32;;;;;;;;;;5078425;28;20044;-79
2023/07/30 07:08:35;;;;;;;8.00;3.30;;;;;;;;;;5080236;28;20045;-79
2023/07/30 07:11:01;;;;;;;8.30;2.95;;;;;;;;;;5056358;28;20045;-79
2023/07/30 07:13:27;;;;;;;9.52;2.90;;;;;;;;;;5070438;28;20387;-80
2023/07/30 07:15:53;;;;;;;9.02;2.95;;;;;;;;;;5082319;28;20048;-80
2023/07/30 07:18:19;;;;;;;11.77;3.05;;;;;;;;;;5071177;28;20065;-79
2023/07/30 07:20:46;;;;;;;14.05;4.03;;;;;;;;;;5062869;28;20041;-79
2023/07/30 07:23:12;;;;;;;13.57;3.25;;;;;;;;;;5066546;28;20480;-79
2023/07/30 07:25:38;;;;;;;10.32;3.28;;;;;;;;;;5070650;28;20037;-79
2023/07/30 07:28:04;;;;;;;14.45;3.78;;;;;;;;;;5081052;28;20083;-79
2023/07/30 07:30:30;;;;;;;10.10;3.50;;;;;;;;;;5079161;28;20463;-79
2023/07/30 07:32:56;;;;;;;13.00;3.92;;;;;;;;;;5067296;28;20473;-79
2023/07/30 07:35:22;;;;;;;10.13;3.55;;;;;;;;;;5078050;28;20063;-79
2023/07/30 07:37:48;;;;;;;8.88;3.60;;;;;;;;;;5067265;28;20055;-80
2023/07/30 07:40:15;;;;;;;7.80;3.03;;;;;;;;;;5082424;28;20048;-80
2023/07/30 07:42:41;;;;;;;9.48;3.00;;;;;;;;;;5072158;28;20056;-80
2023/07/30 07:45:08;;;;;;;7.75;2.92;;;;;;;;;;5065293;28;20037;-79
2023/07/30 07:47:34;;;;;;;12.60;3.30;;;;;;;;;;5061933;28;20049;-79
2023/07/30 07:50:00;;;;;;;13.02;3.30;;;;;;;;;;5062295;28;20056;-79
2023/07/30 07:52:26;;;;;;;11.50;3.15;;;;;;;;;;5064071;28;20052;-79
2023/07/30 07:54:52;;;;;;;8.23;2.65;;;;;;;;;;5068462;28;20148;-79
2023/07/30 07:57:18;;;;;;;12.80;3.67;;;;;;;;;;5078764;28;20051;-79
2023/07/30 07:59:45;;;;;;;13.80;3.40;;;;;;;;;;5081283;28;20479;-79
2023/07/30 08:02:14;;;;;;;9.18;3.20;;;;;;;;;;5081898;28;20513;-79
2023/07/30 08:04:40;;;;;;;10.35;3.08;;;;;;;;;;5070319;28;20045;-79
2023/07/30 08:07:06;;;;;;;11.43;3.17;;;;;;;;;;5062114;28;20105;-79
2023/07/30 08:09:32;;;;;;;10.82;3.30;;;;;;;;;;5073037;28;20097;-79
2023/07/30 08:12:00;;;;;;;9.48;3.17;;;;;;;;;;5080407;28;20402;-79
2023/07/30 08:14:26;;;;;;;12.43;3.10;;;;;;;;;;5081666;28;20047;-79
2023/07/30 08:16:53;;;;;;;9.68;3.20;;;;;;;;;;5081501;28;20044;-79
2023/07/30 08:19:19;;;;;;;10.18;3.20;;;;;;;;;;5082143;28;20119;-79
2023/07/30 08:21:45;;;;;;;12.82;3.55;;;;;;;;;;5081553;28;20071;-79
2023/07/30 08:24:11;;;;;;;9.65;3.00;;;;;;;;;;5074858;28;20037;-79
2023/07/30 08:26:37;;;;;;;9.30;2.47;;;;;;;;;;5061777;28;20056;-79
2023/07/30 08:29:03;;;;;;;8.85;3.42;;;;;;;;;;5076164;28;20048;-79
2023/07/30 08:31:29;;;;;;;11.70;3.40;;;;;;;;;;5082350;28;20045;-79
2023/07/30 08:33:55;;;;;;;13.02;4.22;;;;;;;;;;5068823;28;20106;-79
2023/07/30 08:36:21;;;;;;;10.00;3.10;;;;;;;;;;5069572;28;20510;-79
2023/07/30 08:38:47;;;;;;;10.23;3.28;;;;;;;;;;5061754;28;20064;-79
2023/07/30 08:41:14;;;;;;;7.82;2.97;;;;;;;;;;5062423;28;20249;-79
2023/07/30 08:43:40;;;;;;;10.18;3.28;;;;;;;;;;5061918;28;20065;-79
2023/07/30 08:46:06;;;;;;;12.57;3.00;;;;;;;;;;5069090;28;20037;-79
2023/07/30 08:48:32;;;;;;;10.02;3.42;;;;;;;;;;5073251;28;20052;-79
2023/07/30 08:50:58;;;;;;;12.27;3.30;;;;;;;;;;5071696;28;20049;-79
2023/07/30 08:53:26;;;;;;;10.93;2.88;;;;;;;;;;5081949;28;20045;-79
2023/07/30 08:55:54;;;;;;;9.60;3.17;;;;;;;;;;5082644;28;20048;-79
2023/07/30 08:58:20;;;;;;;8.50;3.10;;;;;;;;;;5082024;28;20170;-79
2023/07/30 09:00:47;;;;;;;9.68;3.30;;;;;;;;;;5081377;28;20036;-79
2023/07/30 09:03:15;;;;;;;11.32;3.22;;;;;;;;;;5074584;28;20044;-79
2023/07/30 09:05:41;;;;;;;9.45;3.10;;;;;;;;;;5076845;28;20040;-78
2023/07/30 09:08:07;;;;;;;8.75;2.95;;;;;;;;;;5073974;28;20099;-80
2023/07/30 09:10:33;;;;;;;8.93;2.65;;;;;;;;;;5079046;28;20056;-79
2023/07/30 09:12:59;;;;;;;9.25;2.40;;;;;;;;;;5075874;28;20084;-79
2023/07/30 09:15:32;;;;;;;9.25;3.00;;;;;;;;;;5084430;28;20064;-79
2023/07/30 09:17:58;;;;;;;7.15;2.55;;;;;;;;;;5072505;28;20538;-79
2023/07/30 09:20:24;;;;;;;6.38;2.97;;;;;;;;;;5074275;28;20048;-79
2023/07/30 09:22:51;;;;;;;9.02;3.00;;;;;;;;;;5077523;28;20040;-79
2023/07/30 09:25:22;;;;;;;8.30;2.90;;;;;;;;;;5072758;28;20037;-79
2023/07/30 09:27:49;;;;;;;6.63;3.33;;;;;;;;;;5071533;28;20048;-80
2023/07/30 09:30:15;;;;;;;7.78;2.80;;;;;;;;;;5073419;28;20052;-79
2023/07/30 09:32:41;;;;;;;10.63;2.97;;;;;;;;;;5082031;28;20529;-79
2023/07/30 09:35:07;;;;;;;7.78;3.33;;;;;;;;;;5080717;28;20048;-79
2023/07/30 09:37:38;;;;;;;10.02;2.83;;;;;;;;;;5078893;28;20053;-79
2023/07/30 09:40:05;;;;;;;7.60;2.95;;;;;;;;;;5080458;28;20331;-79
2023/07/30 09:42:33;;;;;;;9.43;2.90;;;;;;;;;;5080640;28;20043;-79
2023/07/30 09:45:00;;;;;;;9.23;2.70;;;;;;;;;;5079618;28;20163;-79
2023/07/30 09:47:27;;;;;;;8.82;2.63;;;;;;;;;;5078814;28;20072;-79
2023/07/30 09:49:53;;;;;;;9.95;3.00;;;;;;;;;;5079698;28;20036;-79
2023/07/30 09:52:21;;;;;;;10.60;2.60;;;;;;;;;;5080629;28;20045;-79
2023/07/30 09:54:49;;;;;;;9.05;2.90;;;;;;;;;;5059355;28;20518;-79
2023/07/30 09:57:15;;;;;;;9.73;3.13;;;;;;;;;;5061572;28;20402;-79
2023/07/30 09:59:41;;;;;;;11.98;3.42;;;;;;;;;;5078217;28;20045;-79
2023/07/30 10:02:09;;;;;;;8.52;2.95;;;;;;;;;;5063629;28;20052;-79
2023/07/30 10:04:38;;;;;;;10.48;2.97;;;;;;;;;;5065051;28;20044;-79
2023/07/30 10:07:07;;;;;;;10.23;3.72;;;;;;;;;;5068985;28;20050;-79
2023/07/30 10:09:38;;;;;;;10.95;3.03;;;;;;;;;;5067223;28;20136;-79
2023/07/30 10:12:05;;;;;;;9.57;2.95;;;;;;;;;;5067553;28;20386;-78
2023/07/30 10:14:32;;;;;;;11.88;2.75;;;;;;;;;;5061347;28;20092;-81
2023/07/30 10:17:01;;;;;;;10.43;2.60;;;;;;;;;;5061128;28;20363;-80
2023/07/30 10:19:28;;;;;;;7.47;2.78;;;;;;;;;;5056774;28;20075;-80
2023/07/30 10:22:12;;;;;;;11.27;3.00;;;;;;;;;;5058425;28;20135;-79
2023/07/30 10:24:41;;;;;;;7.53;2.97;;;;;;;;;;5069893;28;20383;-79
2023/07/30 10:27:08;;;;;;;9.38;2.55;;;;;;;;;;5081129;28;20383;-79
2023/07/30 10:29:39;;;;;;;9.18;3.25;;;;;;;;;;5082126;28;20044;-79
2023/07/30 10:32:05;;;;;;;13.00;3.08;;;;;;;;;;5065117;28;20056;-79
2023/07/30 10:34:45;;;;;;;9.30;2.95;;;;;;;;;;5066075;28;20044;-79
2023/07/30 10:37:11;;;;;;;7.25;2.83;;;;;;;;;;5066480;28;20541;-80
2023/07/30 10:39:37;;;;;;;9.02;2.50;;;;;;;;;;5082377;28;20398;-80
2023/07/30 10:42:04;;;;;;;5.95;3.00;;;;;;;;;;5082510;28;20041;-80
2023/07/30 10:44:34;;;;;;;9.57;2.65;;;;;;;;;;5083210;28;20033;-79
2023/07/30 10:47:01;;;;;;;6.53;2.47;;;;;;;;;;5065270;28;20043;-79
2023/07/30 10:49:27;;;;;;;8.15;2.97;;;;;;;;;;5062760;28;20052;-79
2023/07/30 10:51:53;;;;;;;7.30;2.60;;;;;;;;;;5064698;28;20041;-79
2023/07/30 10:54:19;;;;;;;8.98;2.83;;;;;;;;;;5078537;28;20055;-79
2023/07/30 10:56:46;;;;;;;10.57;3.15;;;;;;;;;;5084151;28;20070;-79
2023/07/30 10:59:13;;;;;;;9.35;2.72;;;;;;;;;;5084310;28;20044;-80
2023/07/30 11:01:40;;;;;;;7.13;2.85;;;;;;;;;;5081018;28;21789;-79
2023/07/30 11:04:10;;;;;;;14.02;3.05;;;;;;;;;;5063193;28;20097;-80
2023/07/30 11:06:36;;;;;;;10.10;3.28;;;;;;;;;;5063313;28;20506;-80
2023/07/30 11:09:02;;;;;;;9.50;3.03;;;;;;;;;;5065280;28;20049;-80
2023/07/30 11:11:29;;;;;;;8.88;2.70;;;;;;;;;;5081805;28;20048;-81
2023/07/30 11:13:55;;;;;;;9.38;2.80;;;;;;;;;;5075343;28;20056;-80
2023/07/30 11:16:21;;;;;;;9.93;3.13;;;;;;;;;;5063596;28;20044;-80
2023/07/30 11:18:47;;;;;;;10.38;3.42;;;;;;;;;;5077475;28;20056;-80
2023/07/30 11:21:16;;;;;;;12.32;2.80;;;;;;;;;;5063435;28;20081;-81
2023/07/30 11:23:42;;;;;;;9.07;3.05;;;;;;;;;;5081571;28;20063;-79
2023/07/30 11:26:09;;;;;;;7.07;2.67;;;;;;;;;;5066244;28;20094;-79
2023/07/30 11:28:39;;;;;;;8.55;2.85;;;;;;;;;;5060970;28;20052;-79
2023/07/30 11:31:08;;;;;;;7.85;2.60;;;;;;;;;;5062320;28;20049;-80
2023/07/30 11:33:47;;;;;;;9.52;2.90;;;;;;;;;;5061975;28;20376;-80
2023/07/30 11:36:18;;;;;;;9.45;2.95;;;;;;;;;;5062114;28;20048;-80
2023/07/30 11:38:45;;;;;;;7.57;2.58;;;;;;;;;;5060665;28;20509;-80
2023/07/30 11:41:11;;;;;;;7.88;2.63;;;;;;;;;;5052743;28;20055;-80
2023/07/30 11:43:38;;;;;;;7.13;3.05;;;;;;;;;;5042054;28;20077;-80
2023/07/30 11:46:14;;;;;;;7.13;2.55;;;;;;;;;;5042751;28;20073;-79
2023/07/30 11:48:41;;;;;;;6.53;2.55;;;;;;;;;;5042197;28;20479;-79
2023/07/30 11:51:07;;;;;;;5.32;2.53;;;;;;;;;;5056882;28;20110;-79
2023/07/30 11:53:53;;;;;;;7.95;2.60;;;;;;;;;;5062482;28;20037;-79
2023/07/30 11:56:19;;;;;;;5.00;2.35;;;;;;;;;;5062605;28;20052;-79
2023/07/30 11:58:47;;;;;;;7.43;2.13;;;;;;;;;;5062492;28;20059;-79
2023/07/30 12:01:13;;;;;;;6.05;2.42;;;;;;;;;;5062989;28;20045;-81
2023/07/30 12:03:41;;;;;;;6.85;2.58;;;;;;;;;;5053293;28;20138;-80
2023/07/30 12:06:09;;;;;;;6.63;2.42;;;;;;;;;;5059741;28;20116;-80
2023/07/30 12:08:36;;;;;;;7.72;2.60;;;;;;;;;;5062220;28;20048;-80
2023/07/30 12:11:06;;;;;;;9.30;2.50;;;;;;;;;;5060003;28;20104;-80
2023/07/30 12:13:33;;;;;;;5.80;2.42;;;;;;;;;;5061515;28;20068;-80
2023/07/30 12:15:59;;;;;;;7.15;2.13;;;;;;;;;;5061931;28;20471;-80
2023/07/30 12:18:28;;;;;;;6.65;2.45;;;;;;;;;;5059090;28;20463;-80
2023/07/30 12:20:56;;;;;;;7.57;2.30;;;;;;;;;;5062007;28;20048;-80
2023/07/30 12:23:22;;;;;;;10.40;2.45;;;;;;;;;;5061022;28;20049;-79
2023/07/30 12:25:48;;;;;;;7.40;2.63;;;;;;;;;;5057888;28;20060;-79
2023/07/30 12:28:14;;;;;;;7.50;2.22;;;;;;;;;;5062749;28;20361;-79
2023/07/30 12:30:40;;;;;;;8.60;2.38;;;;;;;;;;5063254;28;20041;-80
2023/07/30 12:33:06;;;;;;;6.28;2.03;;;;;;;;;;5053053;28;20072;-79
2023/07/30 12:35:33;;;;;;;5.60;2.00;;;;;;;;;;5054560;28;20079;-79
2023/07/30 12:37:59;;;;;;;5.68;2.03;;;;;;;;;;5049495;28;20051;-80
2023/07/30 12:40:26;;;;;;;4.55;2.38;;;;;;;;;;5048395;28;20059;-80
2023/07/30 12:42:52;;;;;;;6.55;2.05;;;;;;;;;;5070079;28;20048;-80
2023/07/30 12:45:18;;;;;;;8.68;2.33;;;;;;;;;;5060211;28;20079;-79
2023/07/30 12:47:45;;;;;;;6.05;2.35;;;;;;;;;;5041214;28;20111;-79
2023/07/30 12:50:11;;;;;;;7.80;2.35;;;;;;;;;;5051796;28;20083;-80
2023/07/30 12:52:37;;;;;;;8.10;2.42;;;;;;;;;;5064793;28;20423;-79
2023/07/30 12:55:04;;;;;;;6.18;2.20;;;;;;;;;;5054805;28;20471;-80
2023/07/30 12:57:30;;;;;;;7.00;2.47;;;;;;;;;;5059158;28;20056;-79
2023/07/30 12:59:57;;;;;;;7.57;2.55;;;;;;;;;;5056986;28;20037;-79
2023/07/30 13:02:23;;;;;;;8.05;2.55;;;;;;;;;;5061675;28;20048;-79
2023/07/30 13:04:49;;;;;;;8.52;3.30;;;;;;;;;;5061721;28;20049;-80
2023/07/30 13:07:15;;;;;;;6.15;2.30;;;;;;;;;;5057852;28;20052;-81
2023/07/30 13:09:41;;;;;;;7.43;2.40;;;;;;;;;;5050809;28;20465;-80
2023/07/30 13:12:07;;;;;;;9.02;2.40;;;;;;;;;;5054621;28;20101;-79
2023/07/30 13:14:33;;;;;;;6.40;2.10;;;;;;;;;;5059644;28;20045;-79
2023/07/30 13:16:59;;;;;;;5.43;1.92;;;;;;;;;;5062694;28;20041;-79
2023/07/30 13:19:28;;;;;;;5.50;2.30;;;;;;;;;;5062190;28;20086;-79
2023/07/30 13:21:54;;;;;;;5.20;2.13;;;;;;;;;;5060643;28;20410;-79
2023/07/30 13:24:20;;;;;;;5.25;2.30;;;;;;;;;;5061591;28;20041;-79
2023/07/30 13:26:46;;;;;;;6.40;2.30;;;;;;;;;;5061931;28;20044;-79
2023/07/30 13:29:12;;;;;;;6.40;2.40;;;;;;;;;;5062424;28;20041;-79
2023/07/30 13:31:38;;;;;;;5.22;2.20;;;;;;;;;;5051046;28;20128;-80
2023/07/30 13:34:04;;;;;;;8.77;2.38;;;;;;;;;;5061033;28;20041;-79
2023/07/30 13:36:30;;;;;;;6.35;2.10;;;;;;;;;;5062333;28;20511;-79
2023/07/30 13:38:56;;;;;;;5.18;2.10;;;;;;;;;;5062504;28;20068;-79
2023/07/30 13:41:22;;;;;;;8.07;2.38;;;;;;;;;;5062729;28;20083;-79
2023/07/30 13:43:48;;;;;;;5.47;2.17;;;;;;;;;;5062164;28;20041;-79
2023/07/30 13:46:14;;;;;;;7.22;2.40;;;;;;;;;;5058427;28;20040;-81
2023/07/30 13:48:40;;;;;;;7.60;2.85;;;;;;;;;;5062462;28;20182;-80
2023/07/30 13:51:06;;;;;;;6.47;2.80;;;;;;;;;;5062288;28;20040;-80
2023/07/30 13:53:34;;;;;;;6.63;2.35;;;;;;;;;;5062008;28;20051;-79
2023/07/30 13:56:01;;;;;;;5.65;2.10;;;;;;;;;;5061221;28;20052;-79
2023/07/30 13:58:27;;;;;;;5.40;2.10;;;;;;;;;;5054066;28;20107;-79
2023/07/30 14:00:55;;;;;;;6.38;2.00;;;;;;;;;;5042556;28;20049;-79
2023/07/30 14:03:21;;;;;;;6.35;2.20;;;;;;;;;;5051418;28;20049;-80
2023/07/30 14:05:47;;;;;;;5.82;2.15;;;;;;;;;;5044339;28;20049;-81
2023/07/30 14:08:13;;;;;;;4.70;2.08;;;;;;;;;;5055078;28;20045;-80
2023/07/30 14:10:39;;;;;;;5.68;1.98;;;;;;;;;;5056030;28;20044;-80
2023/07/30 14:13:05;;;;;;;5.18;2.20;;;;;;;;;;5053933;28;20045;-80
2023/07/30 14:15:32;;;;;;;3.72;1.70;;;;;;;;;;5046326;28;20046;-80
2023/07/30 14:17:58;;;;;;;5.43;1.98;;;;;;;;;;5057643;28;20045;-80
2023/07/30 14:20:24;;;;;;;3.88;1.83;;;;;;;;;;5044767;28;20041;-80
2023/07/30 14:22:51;;;;;;;3.92;1.60;;;;;;;;;;5049968;28;20049;-80
2023/07/30 14:25:17;;;;;;;5.65;1.65;;;;;;;;;;5056629;28;20045;-80
2023/07/30 14:27:43;;;;;;;3.67;1.70;;;;;;;;;;5057645;28;20076;-80
2023/07/30 14:30:10;;;;;;;4.97;1.92;;;;;;;;;;5056663;28;20484;-80
2023/07/30 14:32:36;;;;;;;4.15;1.88;;;;;;;;;;5046216;28;20443;-80